Itatiba, Brazil
Current Conditions -  °F | °C
As of 12:00 PM on Friday 31 Oct 2014 (Local Time) from SBCH Reporting Station
Few Clouds Few Clouds  
Wind Chill: 81°   Ceiling: Unl
Heat Index: 82°   Visibility: 6mi
Dew Point: 64°   Wind: 13mph
Humidity: 58%   Direction: 330°NNW
Pressure: 29.91"   Gusts: NA
Location:  27.37°S, 52.45°W
Report Text: SBCH 311400Z 33011KT 9999 FEW015 27/18 Q1013
Loading
Personal Weather Stations






























Interactive Weather Map
Tropical Storm Tracking
New forecast layout! Learn more

10-Day Weather Forecast

Advertisements
Track Severe Weather on mobile